Phoenix, Arizona
Traffic Map
Current Weather Conditions
Phoenix, Arizona
Broken Clouds
Broken Clouds
99°
Feels Like: 99°
Wind Chill: 99° Ceiling: 20000
Heat Index: 99° Visibility: 10mi
Dew Point: 59° Wind: 3mph
Humidity: 26% Direction: 220° (SW)
Pressure: 29.79in Gusts: 0mph
Raw Report DataKPHX 160251Z 22003KT 10SM FEW070 SCT120 BKN200 37/15 A2979 RMK AO2 SLP064 T03720150 53012
Traffic Incident Summary
Active as of:
Severity:
Category:
InformationThere was an issue retrieving the traffic information for this location. Please try a different location or try again shortly.
Advertisements
Track Severe Weather on mobile